sensor_id;sensor_type;location;lat;lon;timestamp;P1;durP1;ratioP1;P2;durP2;ratioP2
26582;SDS011;14230;45.382;10.998;2023-04-15T00:01:17;6.38;;;5.03;;
26582;SDS011;14230;45.382;10.998;2023-04-15T00:03:47;12.52;;;5.82;;
26582;SDS011;14230;45.382;10.998;2023-04-15T00:06:22;11.25;;;5.65;;
26582;SDS011;14230;45.382;10.998;2023-04-15T00:08:52;10.40;;;6.20;;
26582;SDS011;14230;45.382;10.998;2023-04-15T00:11:21;6.32;;;5.72;;
26582;SDS011;14230;45.382;10.998;2023-04-15T00:13:51;10.38;;;5.35;;
26582;SDS011;14230;45.382;10.998;2023-04-15T00:16:20;6.72;;;5.25;;
26582;SDS011;14230;45.382;10.998;2023-04-15T00:18:49;7.00;;;5.75;;
26582;SDS011;14230;45.382;10.998;2023-04-15T00:21:18;6.38;;;5.53;;
26582;SDS011;14230;45.382;10.998;2023-04-15T00:23:48;7.50;;;5.22;;
26582;SDS011;14230;45.382;10.998;2023-04-15T00:26:20;6.95;;;5.30;;
26582;SDS011;14230;45.382;10.998;2023-04-15T00:28:49;6.90;;;5.55;;
26582;SDS011;14230;45.382;10.998;2023-04-15T00:31:18;6.63;;;4.95;;
26582;SDS011;14230;45.382;10.998;2023-04-15T00:33:48;7.95;;;5.25;;
26582;SDS011;14230;45.382;10.998;2023-04-15T00:36:17;9.73;;;4.88;;
26582;SDS011;14230;45.382;10.998;2023-04-15T00:38:47;6.97;;;4.95;;
26582;SDS011;14230;45.382;10.998;2023-04-15T00:41:17;10.10;;;5.35;;
26582;SDS011;14230;45.382;10.998;2023-04-15T00:43:49;8.63;;;6.78;;
26582;SDS011;14230;45.382;10.998;2023-04-15T00:46:18;7.25;;;5.95;;
26582;SDS011;14230;45.382;10.998;2023-04-15T00:48:49;9.60;;;7.07;;
26582;SDS011;14230;45.382;10.998;2023-04-15T00:51:19;10.93;;;5.78;;
26582;SDS011;14230;45.382;10.998;2023-04-15T00:53:48;7.05;;;5.57;;
26582;SDS011;14230;45.382;10.998;2023-04-15T00:56:19;9.70;;;5.82;;
26582;SDS011;14230;45.382;10.998;2023-04-15T00:58:52;7.10;;;5.80;;
26582;SDS011;14230;45.382;10.998;2023-04-15T01:01:22;8.48;;;5.65;;
26582;SDS011;14230;45.382;10.998;2023-04-15T01:03:56;7.50;;;5.40;;
26582;SDS011;14230;45.382;10.998;2023-04-15T01:06:27;9.70;;;6.38;;
26582;SDS011;14230;45.382;10.998;2023-04-15T01:08:58;8.63;;;5.65;;
26582;SDS011;14230;45.382;10.998;2023-04-15T01:11:29;7.63;;;5.82;;
26582;SDS011;14230;45.382;10.998;2023-04-15T01:14:01;9.35;;;5.85;;
26582;SDS011;14230;45.382;10.998;2023-04-15T01:16:32;7.43;;;5.15;;
26582;SDS011;14230;45.382;10.998;2023-04-15T01:19:01;7.45;;;5.93;;
26582;SDS011;14230;45.382;10.998;2023-04-15T01:21:31;6.22;;;5.55;;
26582;SDS011;14230;45.382;10.998;2023-04-15T01:24:04;6.22;;;5.13;;
26582;SDS011;14230;45.382;10.998;2023-04-15T01:26:37;7.20;;;5.72;;
26582;SDS011;14230;45.382;10.998;2023-04-15T01:29:07;7.72;;;6.07;;
26582;SDS011;14230;45.382;10.998;2023-04-15T01:31:36;6.45;;;5.78;;
26582;SDS011;14230;45.382;10.998;2023-04-15T01:34:04;7.88;;;6.10;;
26582;SDS011;14230;45.382;10.998;2023-04-15T01:36:31;10.02;;;6.20;;
26582;SDS011;14230;45.382;10.998;2023-04-15T01:39:00;7.70;;;6.43;;
26582;SDS011;14230;45.382;10.998;2023-04-15T01:41:28;8.93;;;6.38;;
26582;SDS011;14230;45.382;10.998;2023-04-15T01:43:56;7.97;;;6.32;;
26582;SDS011;14230;45.382;10.998;2023-04-15T01:46:23;6.88;;;5.80;;
26582;SDS011;14230;45.382;10.998;2023-04-15T01:48:52;10.05;;;6.22;;
26582;SDS011;14230;45.382;10.998;2023-04-15T01:51:20;9.93;;;5.97;;
26582;SDS011;14230;45.382;10.998;2023-04-15T01:53:48;10.48;;;6.95;;
26582;SDS011;14230;45.382;10.998;2023-04-15T01:56:15;8.50;;;6.15;;
26582;SDS011;14230;45.382;10.998;2023-04-15T01:58:44;8.07;;;6.25;;
26582;SDS011;14230;45.382;10.998;2023-04-15T02:01:12;7.50;;;6.70;;
26582;SDS011;14230;45.382;10.998;2023-04-15T02:03:41;9.25;;;7.43;;
26582;SDS011;14230;45.382;10.998;2023-04-15T02:06:09;10.07;;;6.55;;
26582;SDS011;14230;45.382;10.998;2023-04-15T02:08:37;10.57;;;7.07;;
26582;SDS011;14230;45.382;10.998;2023-04-15T02:11:07;8.32;;;6.38;;
26582;SDS011;14230;45.382;10.998;2023-04-15T02:13:36;9.02;;;6.65;;
26582;SDS011;14230;45.382;10.998;2023-04-15T02:16:14;11.40;;;6.88;;
26582;SDS011;14230;45.382;10.998;2023-04-15T02:18:45;8.32;;;5.85;;
26582;SDS011;14230;45.382;10.998;2023-04-15T02:21:15;9.27;;;5.75;;
26582;SDS011;14230;45.382;10.998;2023-04-15T02:23:46;10.10;;;6.07;;
26582;SDS011;14230;45.382;10.998;2023-04-15T02:26:14;6.20;;;4.85;;
26582;SDS011;14230;45.382;10.998;2023-04-15T02:28:41;8.63;;;5.00;;
26582;SDS011;14230;45.382;10.998;2023-04-15T02:31:08;8.38;;;4.95;;
26582;SDS011;14230;45.382;10.998;2023-04-15T02:33:36;5.97;;;5.28;;
26582;SDS011;14230;45.382;10.998;2023-04-15T02:36:04;7.30;;;5.10;;
26582;SDS011;14230;45.382;10.998;2023-04-15T02:38:33;5.63;;;5.00;;
26582;SDS011;14230;45.382;10.998;2023-04-15T02:41:01;10.52;;;5.07;;
26582;SDS011;14230;45.382;10.998;2023-04-15T02:43:28;6.78;;;4.88;;
26582;SDS011;14230;45.382;10.998;2023-04-15T02:45:56;5.63;;;5.05;;
26582;SDS011;14230;45.382;10.998;2023-04-15T02:48:25;6.65;;;5.18;;
26582;SDS011;14230;45.382;10.998;2023-04-15T02:50:53;6.65;;;5.10;;
26582;SDS011;14230;45.382;10.998;2023-04-15T02:53:47;8.68;;;5.22;;
26582;SDS011;14230;45.382;10.998;2023-04-15T02:56:15;6.45;;;4.65;;
26582;SDS011;14230;45.382;10.998;2023-04-15T02:58:43;7.13;;;5.20;;
26582;SDS011;14230;45.382;10.998;2023-04-15T03:01:11;5.72;;;5.03;;
26582;SDS011;14230;45.382;10.998;2023-04-15T03:03:40;8.20;;;6.22;;
26582;SDS011;14230;45.382;10.998;2023-04-15T03:06:08;7.25;;;5.15;;
26582;SDS011;14230;45.382;10.998;2023-04-15T03:08:36;5.80;;;5.10;;
26582;SDS011;14230;45.382;10.998;2023-04-15T03:11:03;7.95;;;5.75;;
26582;SDS011;14230;45.382;10.998;2023-04-15T03:13:32;7.90;;;5.75;;
26582;SDS011;14230;45.382;10.998;2023-04-15T03:16:08;7.93;;;5.55;;
26582;SDS011;14230;45.382;10.998;2023-04-15T03:18:35;8.20;;;6.15;;
26582;SDS011;14230;45.382;10.998;2023-04-15T03:21:04;6.95;;;6.25;;
26582;SDS011;14230;45.382;10.998;2023-04-15T03:23:34;9.48;;;5.97;;
26582;SDS011;14230;45.382;10.998;2023-04-15T03:26:02;7.65;;;6.00;;
26582;SDS011;14230;45.382;10.998;2023-04-15T03:28:32;7.63;;;6.18;;
26582;SDS011;14230;45.382;10.998;2023-04-15T03:31:01;9.52;;;6.57;;
26582;SDS011;14230;45.382;10.998;2023-04-15T03:33:28;7.60;;;6.20;;
26582;SDS011;14230;45.382;10.998;2023-04-15T03:35:56;7.78;;;6.35;;
26582;SDS011;14230;45.382;10.998;2023-04-15T03:38:23;8.27;;;6.55;;
26582;SDS011;14230;45.382;10.998;2023-04-15T03:40:50;11.52;;;6.75;;
26582;SDS011;14230;45.382;10.998;2023-04-15T03:43:18;9.98;;;6.32;;
26582;SDS011;14230;45.382;10.998;2023-04-15T03:45:45;9.20;;;6.85;;
26582;SDS011;14230;45.382;10.998;2023-04-15T03:48:13;11.40;;;6.47;;
26582;SDS011;14230;45.382;10.998;2023-04-15T03:50:44;7.95;;;6.75;;
26582;SDS011;14230;45.382;10.998;2023-04-15T03:53:12;11.32;;;6.50;;
26582;SDS011;14230;45.382;10.998;2023-04-15T03:55:39;8.30;;;6.25;;
26582;SDS011;14230;45.382;10.998;2023-04-15T03:58:07;8.15;;;6.63;;
26582;SDS011;14230;45.382;10.998;2023-04-15T04:00:38;8.23;;;6.83;;
26582;SDS011;14230;45.382;10.998;2023-04-15T04:03:07;23.27;;;12.57;;
26582;SDS011;14230;45.382;10.998;2023-04-15T04:05:35;10.57;;;6.65;;
26582;SDS011;14230;45.382;10.998;2023-04-15T04:08:04;8.77;;;6.57;;
26582;SDS011;14230;45.382;10.998;2023-04-15T04:10:32;6.68;;;5.90;;
26582;SDS011;14230;45.382;10.998;2023-04-15T04:12:59;7.88;;;6.88;;
26582;SDS011;14230;45.382;10.998;2023-04-15T04:15:27;7.65;;;6.05;;
26582;SDS011;14230;45.382;10.998;2023-04-15T04:17:55;10.35;;;6.07;;
26582;SDS011;14230;45.382;10.998;2023-04-15T04:20:22;6.88;;;5.97;;
26582;SDS011;14230;45.382;10.998;2023-04-15T04:22:50;8.00;;;6.20;;
26582;SDS011;14230;45.382;10.998;2023-04-15T04:25:17;8.25;;;6.40;;
26582;SDS011;14230;45.382;10.998;2023-04-15T04:27:45;8.52;;;5.45;;
26582;SDS011;14230;45.382;10.998;2023-04-15T04:30:15;8.45;;;5.50;;
26582;SDS011;14230;45.382;10.998;2023-04-15T04:32:42;6.07;;;5.13;;
26582;SDS011;14230;45.382;10.998;2023-04-15T04:35:10;7.70;;;6.05;;
26582;SDS011;14230;45.382;10.998;2023-04-15T04:37:37;8.23;;;6.03;;
26582;SDS011;14230;45.382;10.998;2023-04-15T04:40:05;6.20;;;5.40;;
26582;SDS011;14230;45.382;10.998;2023-04-15T04:42:33;8.02;;;5.90;;
26582;SDS011;14230;45.382;10.998;2023-04-15T04:45:04;10.15;;;5.75;;
26582;SDS011;14230;45.382;10.998;2023-04-15T04:47:32;8.45;;;5.82;;
26582;SDS011;14230;45.382;10.998;2023-04-15T04:49:59;9.77;;;5.68;;
26582;SDS011;14230;45.382;10.998;2023-04-15T04:52:26;8.73;;;5.82;;
26582;SDS011;14230;45.382;10.998;2023-04-15T04:54:54;8.73;;;6.25;;
26582;SDS011;14230;45.382;10.998;2023-04-15T04:57:21;13.75;;;6.47;;
26582;SDS011;14230;45.382;10.998;2023-04-15T04:59:49;9.05;;;6.53;;
26582;SDS011;14230;45.382;10.998;2023-04-15T05:02:16;9.38;;;7.05;;
26582;SDS011;14230;45.382;10.998;2023-04-15T05:04:44;11.35;;;6.80;;
26582;SDS011;14230;45.382;10.998;2023-04-15T05:07:12;10.25;;;6.97;;
26582;SDS011;14230;45.382;10.998;2023-04-15T05:09:39;9.05;;;7.25;;
26582;SDS011;14230;45.382;10.998;2023-04-15T05:12:06;10.93;;;7.07;;
26582;SDS011;14230;45.382;10.998;2023-04-15T05:14:35;9.90;;;6.90;;
26582;SDS011;14230;45.382;10.998;2023-04-15T05:17:02;12.20;;;7.43;;
26582;SDS011;14230;45.382;10.998;2023-04-15T05:19:29;9.88;;;6.90;;
26582;SDS011;14230;45.382;10.998;2023-04-15T05:21:57;9.75;;;6.57;;
26582;SDS011;14230;45.382;10.998;2023-04-15T05:24:24;10.27;;;6.75;;
26582;SDS011;14230;45.382;10.998;2023-04-15T05:26:52;10.75;;;6.32;;
26582;SDS011;14230;45.382;10.998;2023-04-15T05:29:19;11.48;;;6.45;;
26582;SDS011;14230;45.382;10.998;2023-04-15T05:31:47;9.18;;;6.10;;
26582;SDS011;14230;45.382;10.998;2023-04-15T05:34:14;6.43;;;4.95;;
26582;SDS011;14230;45.382;10.998;2023-04-15T05:36:43;5.53;;;4.63;;
26582;SDS011;14230;45.382;10.998;2023-04-15T05:39:10;10.68;;;5.20;;
26582;SDS011;14230;45.382;10.998;2023-04-15T05:41:38;8.43;;;4.70;;
26582;SDS011;14230;45.382;10.998;2023-04-15T05:44:05;5.65;;;4.75;;
26582;SDS011;14230;45.382;10.998;2023-04-15T05:46:32;8.50;;;3.97;;
26582;SDS011;14230;45.382;10.998;2023-04-15T05:49:00;8.05;;;4.50;;
26582;SDS011;14230;45.382;10.998;2023-04-15T05:51:28;6.85;;;4.75;;
26582;SDS011;14230;45.382;10.998;2023-04-15T05:53:55;9.18;;;4.55;;
26582;SDS011;14230;45.382;10.998;2023-04-15T05:56:23;6.40;;;5.05;;
26582;SDS011;14230;45.382;10.998;2023-04-15T05:58:52;6.53;;;4.35;;
26582;SDS011;14230;45.382;10.998;2023-04-15T06:01:23;12.85;;;4.50;;
26582;SDS011;14230;45.382;10.998;2023-04-15T06:03:51;5.45;;;3.65;;
26582;SDS011;14230;45.382;10.998;2023-04-15T06:06:18;7.55;;;4.80;;
26582;SDS011;14230;45.382;10.998;2023-04-15T06:08:46;6.43;;;4.10;;
26582;SDS011;14230;45.382;10.998;2023-04-15T06:11:14;8.20;;;4.03;;
26582;SDS011;14230;45.382;10.998;2023-04-15T06:13:42;11.82;;;4.32;;
26582;SDS011;14230;45.382;10.998;2023-04-15T06:16:09;5.13;;;3.58;;
26582;SDS011;14230;45.382;10.998;2023-04-15T06:18:37;8.68;;;4.10;;
26582;SDS011;14230;45.382;10.998;2023-04-15T06:21:05;9.30;;;3.90;;
26582;SDS011;14230;45.382;10.998;2023-04-15T06:23:35;5.53;;;3.90;;
26582;SDS011;14230;45.382;10.998;2023-04-15T06:26:03;4.60;;;3.58;;
26582;SDS011;14230;45.382;10.998;2023-04-15T06:28:30;7.00;;;4.32;;
26582;SDS011;14230;45.382;10.998;2023-04-15T06:30:58;4.18;;;3.17;;
26582;SDS011;14230;45.382;10.998;2023-04-15T06:33:25;5.80;;;3.40;;
26582;SDS011;14230;45.382;10.998;2023-04-15T06:35:53;6.53;;;4.55;;
26582;SDS011;14230;45.382;10.998;2023-04-15T06:38:21;5.15;;;3.72;;
26582;SDS011;14230;45.382;10.998;2023-04-15T06:40:49;5.70;;;4.10;;
26582;SDS011;14230;45.382;10.998;2023-04-15T06:43:16;5.70;;;3.72;;
26582;SDS011;14230;45.382;10.998;2023-04-15T06:45:44;5.07;;;3.83;;
26582;SDS011;14230;45.382;10.998;2023-04-15T06:48:11;5.28;;;3.70;;
26582;SDS011;14230;45.382;10.998;2023-04-15T06:50:39;4.18;;;3.05;;
26582;SDS011;14230;45.382;10.998;2023-04-15T06:53:07;4.43;;;3.25;;
26582;SDS011;14230;45.382;10.998;2023-04-15T06:55:34;4.97;;;3.13;;
26582;SDS011;14230;45.382;10.998;2023-04-15T06:58:02;5.78;;;3.45;;
26582;SDS011;14230;45.382;10.998;2023-04-15T07:00:29;3.28;;;2.97;;
26582;SDS011;14230;45.382;10.998;2023-04-15T07:02:57;6.43;;;3.10;;
26582;SDS011;14230;45.382;10.998;2023-04-15T07:05:24;6.03;;;4.72;;
26582;SDS011;14230;45.382;10.998;2023-04-15T07:07:52;3.80;;;3.15;;
26582;SDS011;14230;45.382;10.998;2023-04-15T07:10:19;5.78;;;3.00;;
26582;SDS011;14230;45.382;10.998;2023-04-15T07:12:47;3.63;;;2.65;;
26582;SDS011;14230;45.382;10.998;2023-04-15T07:15:15;3.88;;;3.58;;
26582;SDS011;14230;45.382;10.998;2023-04-15T07:17:42;5.63;;;3.95;;
26582;SDS011;14230;45.382;10.998;2023-04-15T07:20:10;5.55;;;3.67;;
26582;SDS011;14230;45.382;10.998;2023-04-15T07:22:38;4.65;;;3.40;;
26582;SDS011;14230;45.382;10.998;2023-04-15T07:25:06;85.75;;;9.27;;
26582;SDS011;14230;45.382;10.998;2023-04-15T07:27:34;6.18;;;3.45;;
26582;SDS011;14230;45.382;10.998;2023-04-15T07:30:02;9.45;;;3.00;;
26582;SDS011;14230;45.382;10.998;2023-04-15T07:32:30;5.82;;;2.80;;
26582;SDS011;14230;45.382;10.998;2023-04-15T07:34:57;5.78;;;2.80;;
26582;SDS011;14230;45.382;10.998;2023-04-15T07:37:25;3.78;;;2.47;;
26582;SDS011;14230;45.382;10.998;2023-04-15T07:39:54;2.75;;;2.50;;
26582;SDS011;14230;45.382;10.998;2023-04-15T07:42:21;4.57;;;2.40;;
26582;SDS011;14230;45.382;10.998;2023-04-15T07:44:49;4.82;;;3.17;;
26582;SDS011;14230;45.382;10.998;2023-04-15T07:47:17;3.75;;;3.38;;
26582;SDS011;14230;45.382;10.998;2023-04-15T07:49:45;6.70;;;2.97;;
26582;SDS011;14230;45.382;10.998;2023-04-15T07:52:13;5.20;;;2.47;;
26582;SDS011;14230;45.382;10.998;2023-04-15T07:54:40;3.35;;;3.05;;
26582;SDS011;14230;45.382;10.998;2023-04-15T07:57:08;5.50;;;2.90;;
26582;SDS011;14230;45.382;10.998;2023-04-15T07:59:35;3.42;;;3.13;;
26582;SDS011;14230;45.382;10.998;2023-04-15T08:02:03;5.72;;;2.30;;
26582;SDS011;14230;45.382;10.998;2023-04-15T08:04:30;3.15;;;2.40;;
26582;SDS011;14230;45.382;10.998;2023-04-15T08:06:58;3.60;;;2.67;;
26582;SDS011;14230;45.382;10.998;2023-04-15T08:09:25;9.48;;;3.95;;
26582;SDS011;14230;45.382;10.998;2023-04-15T08:11:53;54.22;;;4.97;;
26582;SDS011;14230;45.382;10.998;2023-04-15T08:14:20;3.28;;;3.03;;
26582;SDS011;14230;45.382;10.998;2023-04-15T08:16:48;3.97;;;2.42;;
26582;SDS011;14230;45.382;10.998;2023-04-15T08:19:15;5.40;;;2.17;;
26582;SDS011;14230;45.382;10.998;2023-04-15T08:21:43;3.50;;;2.00;;
26582;SDS011;14230;45.382;10.998;2023-04-15T08:24:10;3.10;;;2.45;;
26582;SDS011;14230;45.382;10.998;2023-04-15T08:26:38;3.45;;;2.90;;
26582;SDS011;14230;45.382;10.998;2023-04-15T08:29:06;3.08;;;2.80;;
26582;SDS011;14230;45.382;10.998;2023-04-15T08:31:33;6.28;;;2.55;;
26582;SDS011;14230;45.382;10.998;2023-04-15T08:34:01;2.85;;;2.20;;
26582;SDS011;14230;45.382;10.998;2023-04-15T08:36:28;3.97;;;2.40;;
26582;SDS011;14230;45.382;10.998;2023-04-15T08:38:56;4.57;;;2.42;;
26582;SDS011;14230;45.382;10.998;2023-04-15T08:41:24;2.78;;;2.33;;
26582;SDS011;14230;45.382;10.998;2023-04-15T08:46:27;3.70;;;2.78;;
26582;SDS011;14230;45.382;10.998;2023-04-15T08:48:56;3.38;;;3.08;;
26582;SDS011;14230;45.382;10.998;2023-04-15T08:51:24;3.10;;;2.90;;
26582;SDS011;14230;45.382;10.998;2023-04-15T08:53:55;4.37;;;3.20;;
26582;SDS011;14230;45.382;10.998;2023-04-15T08:56:23;3.78;;;3.13;;
26582;SDS011;14230;45.382;10.998;2023-04-15T08:58:52;3.40;;;2.53;;
26582;SDS011;14230;45.382;10.998;2023-04-15T09:01:20;4.38;;;3.05;;
26582;SDS011;14230;45.382;10.998;2023-04-15T09:03:49;2.53;;;2.33;;
26582;SDS011;14230;45.382;10.998;2023-04-15T09:06:17;6.05;;;3.25;;
26582;SDS011;14230;45.382;10.998;2023-04-15T09:08:44;3.10;;;2.75;;
26582;SDS011;14230;45.382;10.998;2023-04-15T09:11:12;4.07;;;3.45;;
26582;SDS011;14230;45.382;10.998;2023-04-15T09:13:40;3.45;;;3.15;;
26582;SDS011;14230;45.382;10.998;2023-04-15T09:16:07;2.70;;;2.40;;
26582;SDS011;14230;45.382;10.998;2023-04-15T09:18:38;7.97;;;2.95;;
26582;SDS011;14230;45.382;10.998;2023-04-15T09:21:09;6.03;;;3.47;;
26582;SDS011;14230;45.382;10.998;2023-04-15T09:24:00;4.07;;;3.05;;
26582;SDS011;14230;45.382;10.998;2023-04-15T09:26:35;3.72;;;2.80;;
26582;SDS011;14230;45.382;10.998;2023-04-15T09:29:04;5.78;;;3.20;;
26582;SDS011;14230;45.382;10.998;2023-04-15T09:31:33;3.35;;;3.08;;
26582;SDS011;14230;45.382;10.998;2023-04-15T09:34:02;3.40;;;3.10;;
26582;SDS011;14230;45.382;10.998;2023-04-15T09:39:17;4.75;;;3.15;;
26582;SDS011;14230;45.382;10.998;2023-04-15T09:41:44;3.78;;;3.38;;
26582;SDS011;14230;45.382;10.998;2023-04-15T09:44:24;6.07;;;3.47;;
26582;SDS011;14230;45.382;10.998;2023-04-15T09:46:52;4.18;;;3.72;;
26582;SDS011;14230;45.382;10.998;2023-04-15T09:49:20;4.22;;;3.83;;
26582;SDS011;14230;45.382;10.998;2023-04-15T09:51:47;3.80;;;3.35;;
26582;SDS011;14230;45.382;10.998;2023-04-15T09:54:35;5.50;;;3.92;;
26582;SDS011;14230;45.382;10.998;2023-04-15T09:57:07;4.75;;;4.35;;
26582;SDS011;14230;45.382;10.998;2023-04-15T10:02:04;4.07;;;3.42;;
26582;SDS011;14230;45.382;10.998;2023-04-15T10:04:38;4.28;;;3.88;;
26582;SDS011;14230;45.382;10.998;2023-04-15T10:07:07;6.32;;;5.07;;
26582;SDS011;14230;45.382;10.998;2023-04-15T10:09:37;5.20;;;4.65;;
26582;SDS011;14230;45.382;10.998;2023-04-15T10:12:05;6.05;;;3.50;;
26582;SDS011;14230;45.382;10.998;2023-04-15T10:14:33;4.82;;;3.60;;
26582;SDS011;14230;45.382;10.998;2023-04-15T10:17:04;3.88;;;3.58;;
26582;SDS011;14230;45.382;10.998;2023-04-15T10:19:35;4.35;;;3.95;;
26582;SDS011;14230;45.382;10.998;2023-04-15T10:22:03;6.00;;;5.20;;
26582;SDS011;14230;45.382;10.998;2023-04-15T10:24:32;6.10;;;4.22;;
26582;SDS011;14230;45.382;10.998;2023-04-15T10:27:00;4.47;;;3.85;;
26582;SDS011;14230;45.382;10.998;2023-04-15T10:29:30;4.38;;;3.65;;
26582;SDS011;14230;45.382;10.998;2023-04-15T10:31:58;5.32;;;4.82;;
26582;SDS011;14230;45.382;10.998;2023-04-15T10:34:26;5.60;;;4.07;;
26582;SDS011;14230;45.382;10.998;2023-04-15T10:37:00;6.15;;;4.18;;
26582;SDS011;14230;45.382;10.998;2023-04-15T10:44:50;5.82;;;3.85;;
26582;SDS011;14230;45.382;10.998;2023-04-15T10:47:22;4.90;;;3.83;;
26582;SDS011;14230;45.382;10.998;2023-04-15T10:52:22;5.10;;;4.60;;
26582;SDS011;14230;45.382;10.998;2023-04-15T10:57:37;5.93;;;4.00;;
26582;SDS011;14230;45.382;10.998;2023-04-15T11:05:19;6.18;;;4.47;;
26582;SDS011;14230;45.382;10.998;2023-04-15T11:12:44;5.72;;;4.65;;
26582;SDS011;14230;45.382;10.998;2023-04-15T11:15:28;5.70;;;5.00;;
26582;SDS011;14230;45.382;10.998;2023-04-15T11:17:58;6.90;;;4.97;;
26582;SDS011;14230;45.382;10.998;2023-04-15T11:20:37;7.85;;;4.60;;
26582;SDS011;14230;45.382;10.998;2023-04-15T11:23:07;5.70;;;4.57;;
26582;SDS011;14230;45.382;10.998;2023-04-15T11:25:41;5.97;;;4.72;;
26582;SDS011;14230;45.382;10.998;2023-04-15T11:28:10;6.90;;;5.10;;
26582;SDS011;14230;45.382;10.998;2023-04-15T11:30:39;6.57;;;5.15;;
26582;SDS011;14230;45.382;10.998;2023-04-15T11:33:08;7.97;;;4.93;;
26582;SDS011;14230;45.382;10.998;2023-04-15T11:35:40;6.60;;;5.30;;
26582;SDS011;14230;45.382;10.998;2023-04-15T11:38:09;6.20;;;4.30;;
26582;SDS011;14230;45.382;10.998;2023-04-15T11:40:38;8.80;;;5.32;;
26582;SDS011;14230;45.382;10.998;2023-04-15T11:43:10;4.93;;;4.30;;
26582;SDS011;14230;45.382;10.998;2023-04-15T11:48:24;9.20;;;4.82;;
26582;SDS011;14230;45.382;10.998;2023-04-15T11:50:56;5.90;;;4.72;;
26582;SDS011;14230;45.382;10.998;2023-04-15T11:53:35;5.47;;;4.15;;
26582;SDS011;14230;45.382;10.998;2023-04-15T11:56:03;6.22;;;4.43;;
26582;SDS011;14230;45.382;10.998;2023-04-15T11:58:32;5.70;;;4.28;;
26582;SDS011;14230;45.382;10.998;2023-04-15T12:01:01;6.25;;;4.80;;
26582;SDS011;14230;45.382;10.998;2023-04-15T12:03:30;4.70;;;4.30;;
26582;SDS011;14230;45.382;10.998;2023-04-15T12:06:16;4.30;;;3.90;;
26582;SDS011;14230;45.382;10.998;2023-04-15T12:16:49;4.55;;;4.07;;
26582;SDS011;14230;45.382;10.998;2023-04-15T12:19:28;4.82;;;3.85;;
26582;SDS011;14230;45.382;10.998;2023-04-15T12:22:00;5.47;;;3.70;;
26582;SDS011;14230;45.382;10.998;2023-04-15T12:24:30;5.50;;;4.03;;
26582;SDS011;14230;45.382;10.998;2023-04-15T12:27:05;4.90;;;3.97;;
26582;SDS011;14230;45.382;10.998;2023-04-15T12:29:35;6.70;;;4.28;;
26582;SDS011;14230;45.382;10.998;2023-04-15T12:32:08;3.92;;;3.53;;
26582;SDS011;14230;45.382;10.998;2023-04-15T12:34:39;3.90;;;3.53;;
26582;SDS011;14230;45.382;10.998;2023-04-15T12:37:16;4.60;;;3.50;;
26582;SDS011;14230;45.382;10.998;2023-04-15T12:39:46;4.07;;;3.25;;
26582;SDS011;14230;45.382;10.998;2023-04-15T12:42:15;10.32;;;3.58;;
26582;SDS011;14230;45.382;10.998;2023-04-15T12:44:43;7.75;;;3.78;;
26582;SDS011;14230;45.382;10.998;2023-04-15T12:47:11;5.70;;;3.70;;
26582;SDS011;14230;45.382;10.998;2023-04-15T12:49:39;4.82;;;3.25;;
26582;SDS011;14230;45.382;10.998;2023-04-15T12:52:07;14.95;;;4.07;;
26582;SDS011;14230;45.382;10.998;2023-04-15T12:54:34;6.75;;;2.83;;
26582;SDS011;14230;45.382;10.998;2023-04-15T12:57:02;3.78;;;3.35;;
26582;SDS011;14230;45.382;10.998;2023-04-15T12:59:33;4.10;;;3.22;;
26582;SDS011;14230;45.382;10.998;2023-04-15T13:02:06;5.95;;;3.47;;
26582;SDS011;14230;45.382;10.998;2023-04-15T13:04:34;5.07;;;2.92;;
26582;SDS011;14230;45.382;10.998;2023-04-15T13:07:02;5.47;;;3.95;;
26582;SDS011;14230;45.382;10.998;2023-04-15T13:09:30;4.85;;;3.30;;
26582;SDS011;14230;45.382;10.998;2023-04-15T13:11:58;5.32;;;3.20;;
26582;SDS011;14230;45.382;10.998;2023-04-15T13:14:26;4.47;;;3.45;;
26582;SDS011;14230;45.382;10.998;2023-04-15T13:16:53;6.18;;;3.03;;
26582;SDS011;14230;45.382;10.998;2023-04-15T13:19:21;5.70;;;2.55;;
26582;SDS011;14230;45.382;10.998;2023-04-15T13:21:48;6.03;;;2.60;;
26582;SDS011;14230;45.382;10.998;2023-04-15T13:24:16;3.85;;;2.47;;
26582;SDS011;14230;45.382;10.998;2023-04-15T13:26:44;4.15;;;2.47;;
26582;SDS011;14230;45.382;10.998;2023-04-15T13:29:12;2.92;;;2.60;;
26582;SDS011;14230;45.382;10.998;2023-04-15T13:31:41;5.03;;;2.60;;
26582;SDS011;14230;45.382;10.998;2023-04-15T13:34:08;4.50;;;2.95;;
26582;SDS011;14230;45.382;10.998;2023-04-15T13:36:36;5.13;;;2.55;;
26582;SDS011;14230;45.382;10.998;2023-04-15T13:39:03;20.35;;;3.20;;
26582;SDS011;14230;45.382;10.998;2023-04-15T13:41:31;4.72;;;3.40;;
26582;SDS011;14230;45.382;10.998;2023-04-15T13:43:58;4.05;;;2.40;;
26582;SDS011;14230;45.382;10.998;2023-04-15T13:46:26;3.85;;;2.80;;
26582;SDS011;14230;45.382;10.998;2023-04-15T13:48:54;7.97;;;2.60;;
26582;SDS011;14230;45.382;10.998;2023-04-15T13:51:21;3.75;;;2.20;;
26582;SDS011;14230;45.382;10.998;2023-04-15T13:53:49;7.05;;;1.92;;
26582;SDS011;14230;45.382;10.998;2023-04-15T13:56:16;11.45;;;2.22;;
26582;SDS011;14230;45.382;10.998;2023-04-15T13:58:43;6.68;;;2.28;;
26582;SDS011;14230;45.382;10.998;2023-04-15T14:01:11;4.53;;;2.28;;
26582;SDS011;14230;45.382;10.998;2023-04-15T14:03:38;4.95;;;2.35;;
26582;SDS011;14230;45.382;10.998;2023-04-15T14:06:06;5.25;;;2.38;;
26582;SDS011;14230;45.382;10.998;2023-04-15T14:08:34;4.40;;;2.40;;
26582;SDS011;14230;45.382;10.998;2023-04-15T14:11:01;3.65;;;2.15;;
26582;SDS011;14230;45.382;10.998;2023-04-15T14:13:28;4.45;;;2.30;;
26582;SDS011;14230;45.382;10.998;2023-04-15T14:15:56;4.65;;;2.03;;
26582;SDS011;14230;45.382;10.998;2023-04-15T14:18:23;2.85;;;2.58;;
26582;SDS011;14230;45.382;10.998;2023-04-15T14:20:51;4.07;;;2.35;;
26582;SDS011;14230;45.382;10.998;2023-04-15T14:23:19;8.73;;;2.50;;
26582;SDS011;14230;45.382;10.998;2023-04-15T14:25:46;3.85;;;2.10;;
26582;SDS011;14230;45.382;10.998;2023-04-15T14:28:14;2.78;;;2.33;;
26582;SDS011;14230;45.382;10.998;2023-04-15T14:30:42;4.55;;;2.17;;
26582;SDS011;14230;45.382;10.998;2023-04-15T14:33:09;3.17;;;2.10;;
26582;SDS011;14230;45.382;10.998;2023-04-15T14:35:37;3.47;;;2.20;;
26582;SDS011;14230;45.382;10.998;2023-04-15T14:38:05;4.95;;;2.05;;
26582;SDS011;14230;45.382;10.998;2023-04-15T14:40:36;2.55;;;2.03;;
26582;SDS011;14230;45.382;10.998;2023-04-15T14:43:03;5.78;;;2.20;;
26582;SDS011;14230;45.382;10.998;2023-04-15T14:45:31;4.30;;;3.20;;
26582;SDS011;14230;45.382;10.998;2023-04-15T14:47:58;4.85;;;2.47;;
26582;SDS011;14230;45.382;10.998;2023-04-15T14:50:26;2.95;;;1.80;;
26582;SDS011;14230;45.382;10.998;2023-04-15T14:52:53;3.22;;;1.98;;
26582;SDS011;14230;45.382;10.998;2023-04-15T14:55:21;6.00;;;2.17;;
26582;SDS011;14230;45.382;10.998;2023-04-15T14:57:48;5.28;;;2.22;;
26582;SDS011;14230;45.382;10.998;2023-04-15T15:00:16;3.33;;;1.90;;
26582;SDS011;14230;45.382;10.998;2023-04-15T15:02:43;4.88;;;2.03;;
26582;SDS011;14230;45.382;10.998;2023-04-15T15:05:13;3.80;;;1.80;;
26582;SDS011;14230;45.382;10.998;2023-04-15T15:07:42;3.58;;;1.77;;
26582;SDS011;14230;45.382;10.998;2023-04-15T15:10:10;1.73;;;1.50;;
26582;SDS011;14230;45.382;10.998;2023-04-15T15:12:38;3.13;;;1.98;;
26582;SDS011;14230;45.382;10.998;2023-04-15T15:15:06;3.03;;;2.75;;
26582;SDS011;14230;45.382;10.998;2023-04-15T15:17:53;4.25;;;2.20;;
26582;SDS011;14230;45.382;10.998;2023-04-15T15:20:22;4.20;;;2.22;;
26582;SDS011;14230;45.382;10.998;2023-04-15T15:22:50;4.20;;;2.40;;